Time;durP1;ratioP1;P1;durP2;ratioP2;P2;SDS_P1;SDS_P2;PMS_P1;PMS_P2;Temp;Humidity;BMP_temperature;BMP_pressure;BME280_temperature;BME280_humidity;BME280_pressure;Samples;Min_cycle;Max_cycle;Signal;HPM_P1;HPM_P2
2021/10/04 00:00:07;;;;;;;;;;;;;;;20.92;62.46;100530.13;7287267;19;154111;-53
2021/10/04 00:02:34;;;;;;;;;;;;;;;20.91;62.49;100531.28;7288943;19;151527;-53
2021/10/04 00:05:05;;;;;;;;;;;;;;;20.90;62.67;100527.63;7290881;19;153451;-53
2021/10/04 00:07:32;;;;;;;;;;;;;;;20.90;62.47;100538.84;7286335;19;154032;-52
2021/10/04 00:09:59;;;;;;;;;;;;;;;20.90;62.88;100532.41;7290647;19;151760;-53
2021/10/04 00:12:26;;;;;;;;;;;;;;;20.91;63.39;100534.91;7290343;19;152626;-52
2021/10/04 00:14:53;;;;;;;;;;;;;;;20.89;63.38;100534.41;7287774;19;153591;-52
2021/10/04 00:17:20;;;;;;;;;;;;;;;20.88;63.33;100532.75;7287717;19;151957;-53
2021/10/04 00:19:48;;;;;;;;;;;;;;;20.87;63.51;100539.50;7293772;19;152700;-52
2021/10/04 00:22:15;;;;;;;;;;;;;;;20.87;63.45;100536.69;7289249;19;151712;-52
2021/10/04 00:24:42;;;;;;;;;;;;;;;20.86;63.81;100535.88;7289433;19;153793;-53
2021/10/04 00:27:09;;;;;;;;;;;;;;;20.85;63.52;100539.00;7288489;19;154330;-52
2021/10/04 00:29:36;;;;;;;;;;;;;;;20.82;63.76;100540.47;7289696;19;152120;-52
2021/10/04 00:32:03;;;;;;;;;;;;;;;20.82;63.70;100539.63;7289350;19;153332;-53
2021/10/04 00:34:30;;;;;;;;;;;;;;;20.79;64.10;100543.94;7288101;19;153941;-53
2021/10/04 00:36:57;;;;;;;;;;;;;;;20.78;64.34;100542.25;7289262;19;151960;-52
2021/10/04 00:39:24;;;;;;;;;;;;;;;20.76;64.42;100543.72;7287906;19;153393;-52
2021/10/04 00:41:51;;;;;;;;;;;;;;;20.75;64.24;100542.09;7297184;19;154000;-53
2021/10/04 00:44:19;;;;;;;;;;;;;;;20.75;64.21;100547.69;7289228;19;152006;-53
2021/10/04 00:46:46;;;;;;;;;;;;;;;20.73;64.49;100552.78;7287309;19;152706;-52
2021/10/04 00:49:13;;;;;;;;;;;;;;;20.71;64.49;100550.31;7289776;19;152092;-53
2021/10/04 00:51:40;;;;;;;;;;;;;;;20.71;64.52;100564.34;7286423;19;151920;-53
2021/10/04 00:54:07;;;;;;;;;;;;;;;20.70;64.22;100554.28;7287618;19;153932;-53
2021/10/04 00:56:34;;;;;;;;;;;;;;;20.68;64.52;100562.16;7287700;19;151967;-52
2021/10/04 00:59:01;;;;;;;;;;;;;;;20.68;64.80;100562.16;7289421;19;152582;-53
2021/10/04 01:01:28;;;;;;;;;;;;;;;20.67;64.38;100566.13;7282871;19;154667;-52
2021/10/04 01:03:57;;;;;;;;;;;;;;;20.66;64.57;100558.03;7296475;19;151882;-53
2021/10/04 01:06:24;;;;;;;;;;;;;;;20.63;64.98;100553.88;7283761;19;152966;-52
2021/10/04 01:08:51;;;;;;;;;;;;;;;20.64;64.89;100565.94;7286900;19;151678;-53
2021/10/04 01:11:19;;;;;;;;;;;;;;;20.62;65.00;100562.63;7288467;19;153245;-53
2021/10/04 01:13:47;;;;;;;;;;;;;;;20.61;64.86;100567.41;7285873;19;153791;-52
2021/10/04 01:16:15;;;;;;;;;;;;;;;20.60;64.89;100567.72;7285393;19;151708;-52
2021/10/04 01:18:42;;;;;;;;;;;;;;;20.59;65.13;100571.66;7287243;19;152836;-52
2021/10/04 01:21:09;;;;;;;;;;;;;;;20.58;65.08;100568.03;7285394;19;153505;-53
2021/10/04 01:23:36;;;;;;;;;;;;;;;20.57;65.31;100560.78;7285567;19;151889;-53
2021/10/04 01:26:04;;;;;;;;;;;;;;;20.56;65.47;100566.69;7295192;19;153204;-53
2021/10/04 01:28:31;;;;;;;;;;;;;;;20.56;65.63;100561.91;7288016;19;152557;-52
2021/10/04 01:30:58;;;;;;;;;;;;;;;20.55;65.60;100571.47;7286579;19;153338;-53
2021/10/04 01:33:25;;;;;;;;;;;;;;;20.54;65.60;100567.00;7286951;19;154033;-52
2021/10/04 01:35:52;;;;;;;;;;;;;;;20.53;65.76;100568.19;7283972;19;151841;-52
2021/10/04 01:38:19;;;;;;;;;;;;;;;20.53;66.09;100567.34;7287958;19;153418;-53
2021/10/04 01:40:46;;;;;;;;;;;;;;;20.51;65.74;100567.66;7287358;19;153390;-53
2021/10/04 01:43:13;;;;;;;;;;;;;;;20.50;66.22;100566.00;7287894;19;151745;-53
2021/10/04 01:45:41;;;;;;;;;;;;;;;20.50;66.05;100566.00;7285288;19;153021;-53
2021/10/04 01:48:08;;;;;;;;;;;;;;;20.51;65.87;100570.47;7293617;19;152685;-52
2021/10/04 01:50:36;;;;;;;;;;;;;;;20.52;65.93;100576.91;7285621;19;151760;-52
2021/10/04 01:53:04;;;;;;;;;;;;;;;20.50;66.32;100574.41;7285924;19;153907;-53
2021/10/04 01:55:31;;;;;;;;;;;;;;;20.49;66.60;100567.13;7285925;19;151726;-53
2021/10/04 01:57:58;;;;;;;;;;;;;;;20.48;66.63;100576.72;7286861;19;152458;-52
2021/10/04 02:00:25;;;;;;;;;;;;;;;20.48;66.29;100561.84;7285030;19;153321;-52
2021/10/04 02:02:53;;;;;;;;;;;;;;;20.47;66.15;100561.03;7285751;19;151509;-52
2021/10/04 02:05:21;;;;;;;;;;;;;;;20.46;66.23;100562.16;7284689;19;152881;-52
2021/10/04 02:07:49;;;;;;;;;;;;;;;20.44;66.41;100561.66;7291949;19;153280;-52
2021/10/04 02:10:18;;;;;;;;;;;;;;;20.44;66.64;100556.06;7284407;19;153339;-53
2021/10/04 02:12:46;;;;;;;;;;;;;;;20.42;66.48;100553.56;7287183;19;153505;-53
2021/10/04 02:15:14;;;;;;;;;;;;;;;20.41;66.55;100551.06;7284509;19;152966;-57
2021/10/04 02:17:41;;;;;;;;;;;;;;;20.43;66.29;100543.16;7284372;19;153239;-53
2021/10/04 02:20:10;;;;;;;;;;;;;;;20.42;66.48;100549.91;7284745;19;154243;-53
2021/10/04 02:22:37;;;;;;;;;;;;;;;20.40;66.53;100549.38;7286709;19;152048;-53
2021/10/04 02:25:05;;;;;;;;;;;;;;;20.39;66.13;100544.94;7286802;19;153464;-52
2021/10/04 02:27:32;;;;;;;;;;;;;;;20.37;66.72;100547.22;7284871;19;152570;-52
2021/10/04 02:29:59;;;;;;;;;;;;;;;20.37;66.71;100542.44;7293536;19;151802;-53
2021/10/04 02:32:26;;;;;;;;;;;;;;;20.37;66.68;100544.41;7285266;19;153308;-53
2021/10/04 02:34:53;;;;;;;;;;;;;;;20.36;66.57;100534.34;7285293;19;151675;-53
2021/10/04 02:37:20;;;;;;;;;;;;;;;20.34;66.67;100531.88;7287141;19;152785;-53
2021/10/04 02:39:47;;;;;;;;;;;;;;;20.33;66.70;100540.59;7285243;19;152919;-53
2021/10/04 02:42:14;;;;;;;;;;;;;;;20.33;66.54;100530.19;7285672;19;152157;-53
2021/10/04 02:44:41;;;;;;;;;;;;;;;20.32;66.53;100527.69;7287073;19;153253;-52
2021/10/04 02:47:08;;;;;;;;;;;;;;;20.31;66.92;100526.03;7284325;19;153348;-52
2021/10/04 02:49:35;;;;;;;;;;;;;;;20.30;67.03;100521.59;7281604;19;153913;-52
2021/10/04 02:52:02;;;;;;;;;;;;;;;20.32;67.25;100522.09;7290208;19;151961;-53
2021/10/04 02:54:29;;;;;;;;;;;;;;;20.30;67.41;100525.25;7285975;19;151846;-52
2021/10/04 02:56:56;;;;;;;;;;;;;;;20.29;66.85;100525.50;7285346;19;152064;-52
2021/10/04 02:59:23;;;;;;;;;;;;;;;20.29;67.22;100522.72;7284865;19;154333;-52
2021/10/04 03:01:51;;;;;;;;;;;;;;;20.27;67.13;100520.22;7280123;19;152263;-53
2021/10/04 03:04:19;;;;;;;;;;;;;;;20.26;67.15;100518.53;7285699;19;153377;-53
2021/10/04 03:06:46;;;;;;;;;;;;;;;20.27;67.24;100530.59;7284699;19;153506;-53
2021/10/04 03:09:13;;;;;;;;;;;;;;;20.25;67.19;100525.31;7285768;19;151757;-53
2021/10/04 03:11:40;;;;;;;;;;;;;;;20.25;67.33;100536.53;7285026;19;153440;-52
2021/10/04 03:14:07;;;;;;;;;;;;;;;20.26;67.32;100537.38;7291656;19;153312;-53
2021/10/04 03:16:34;;;;;;;;;;;;;;;20.25;67.44;100535.72;7282267;19;153503;-53
2021/10/04 03:19:01;;;;;;;;;;;;;;;20.23;67.18;100538.00;7284740;19;154180;-53
2021/10/04 03:21:28;;;;;;;;;;;;;;;20.23;67.65;100536.00;7284326;19;151771;-52
2021/10/04 03:23:55;;;;;;;;;;;;;;;20.22;67.19;100541.94;7285443;19;153584;-52
2021/10/04 03:26:22;;;;;;;;;;;;;;;20.22;67.45;100542.75;7284039;19;152236;-52
2021/10/04 03:28:49;;;;;;;;;;;;;;;20.20;67.02;100544.25;7285840;19;152599;-53
2021/10/04 03:31:16;;;;;;;;;;;;;;;20.20;67.37;100549.84;7291588;19;152683;-53
2021/10/04 03:33:43;;;;;;;;;;;;;;;20.19;67.25;100573.44;7288041;19;153382;-52
2021/10/04 03:36:11;;;;;;;;;;;;;;;20.19;66.98;100590.25;7295357;19;153368;-53
2021/10/04 03:38:38;;;;;;;;;;;;;;;20.16;66.94;100591.75;7291801;19;153240;-53
2021/10/04 03:41:05;;;;;;;;;;;;;;;20.15;66.75;100615.31;7291082;19;152079;-53
2021/10/04 03:43:33;;;;;;;;;;;;;;;20.14;66.05;100615.63;7289683;19;152475;-53
2021/10/04 03:46:00;;;;;;;;;;;;;;;20.13;66.27;100599.94;7289304;19;153297;-53
2021/10/04 03:48:27;;;;;;;;;;;;;;;20.13;66.37;100581.13;7291581;19;152308;-52
2021/10/04 03:50:54;;;;;;;;;;;;;;;20.12;66.63;100582.28;7291145;19;152447;-53
2021/10/04 03:53:22;;;;;;;;;;;;;;;20.11;66.75;100577.81;7288384;19;154374;-53
2021/10/04 03:55:49;;;;;;;;;;;;;;;20.11;66.49;100574.19;7285235;19;152790;-53
2021/10/04 03:58:16;;;;;;;;;;;;;;;20.10;66.62;100584.56;7299136;19;152615;-52
2021/10/04 04:00:43;;;;;;;;;;;;;;;20.10;66.71;100575.31;7289734;19;151808;-52
2021/10/04 04:03:10;;;;;;;;;;;;;;;20.07;66.75;100575.97;7291038;19;152756;-53
2021/10/04 04:05:37;;;;;;;;;;;;;;;20.07;66.27;100575.97;7289749;19;153748;-52
2021/10/04 04:08:05;;;;;;;;;;;;;;;20.05;66.46;100589.47;7290220;19;151644;-52
2021/10/04 04:10:32;;;;;;;;;;;;;;;20.03;66.29;100608.59;7290861;19;152775;-52
2021/10/04 04:12:59;;;;;;;;;;;;;;;20.03;66.01;100602.97;7287195;19;152624;-52
2021/10/04 04:15:26;;;;;;;;;;;;;;;20.02;66.28;100610.56;7289133;19;151957;-52
2021/10/04 04:17:53;;;;;;;;;;;;;;;20.01;66.34;100622.06;7295660;19;152618;-52
2021/10/04 04:20:20;;;;;;;;;;;;;;;20.00;66.33;100621.25;7289750;19;151724;-53
2021/10/04 04:22:47;;;;;;;;;;;;;;;19.99;66.55;100630.78;7290517;19;152655;-53
2021/10/04 04:25:14;;;;;;;;;;;;;;;19.99;66.44;100634.44;7287289;19;153652;-52
2021/10/04 04:27:42;;;;;;;;;;;;;;;19.98;66.19;100640.38;7289084;19;151949;-52
2021/10/04 04:30:10;;;;;;;;;;;;;;;19.96;66.59;100632.25;7287971;19;152647;-52
2021/10/04 04:32:38;;;;;;;;;;;;;;;19.96;66.30;100626.66;7289773;19;153242;-52
2021/10/04 04:35:06;;;;;;;;;;;;;;;19.97;66.50;100619.06;7287798;19;152378;-52
2021/10/04 04:37:33;;;;;;;;;;;;;;;19.94;67.12;100612.09;7287443;19;153271;-52
2021/10/04 04:40:00;;;;;;;;;;;;;;;19.96;66.54;100612.63;7291759;19;154211;-52
2021/10/04 04:42:27;;;;;;;;;;;;;;;19.95;66.72;100601.72;7289768;19;152703;-52
2021/10/04 04:44:55;;;;;;;;;;;;;;;19.96;66.91;100598.59;7286357;19;153608;-52
2021/10/04 04:47:22;;;;;;;;;;;;;;;19.94;67.16;100606.50;7287905;19;151908;-53
2021/10/04 04:49:49;;;;;;;;;;;;;;;19.98;67.24;100598.31;7287252;19;153284;-52
2021/10/04 04:52:16;;;;;;;;;;;;;;;19.94;67.53;100597.28;7285121;19;152776;-52
2021/10/04 04:54:43;;;;;;;;;;;;;;;19.94;67.81;100586.06;7289310;19;151808;-52
2021/10/04 04:57:10;;;;;;;;;;;;;;;19.93;67.67;100590.00;7283575;19;153270;-52
2021/10/04 04:59:37;;;;;;;;;;;;;;;19.91;67.28;100586.66;7286904;19;152197;-52
2021/10/04 05:02:04;;;;;;;;;;;;;;;19.90;67.36;100590.59;7295874;19;151650;-53
2021/10/04 05:04:32;;;;;;;;;;;;;;;19.89;67.49;100588.97;7287943;19;153498;-53
2021/10/04 05:06:59;;;;;;;;;;;;;;;19.89;67.39;100586.16;7288876;19;151953;-52
2021/10/04 05:09:26;;;;;;;;;;;;;;;19.88;67.62;100587.31;7289383;19;153604;-53
2021/10/04 05:11:53;;;;;;;;;;;;;;;19.88;67.41;100587.31;7286874;19;152734;-52
2021/10/04 05:14:20;;;;;;;;;;;;;;;19.86;67.51;100590.41;7287177;19;152039;-51
2021/10/04 05:16:47;;;;;;;;;;;;;;;19.86;67.44;100586.78;7286968;19;152630;-53
2021/10/04 05:19:14;;;;;;;;;;;;;;;19.85;67.18;100587.94;7287859;19;153953;-52
2021/10/04 05:21:41;;;;;;;;;;;;;;;19.84;67.31;100592.72;7287875;19;151529;-52
2021/10/04 05:24:08;;;;;;;;;;;;;;;19.84;67.16;100591.88;7295277;19;153847;-53
2021/10/04 05:26:35;;;;;;;;;;;;;;;19.83;67.05;100590.22;7288570;19;151486;-53
2021/10/04 05:29:02;;;;;;;;;;;;;;;19.83;66.99;100591.03;7288557;19;152574;-52
2021/10/04 05:31:29;;;;;;;;;;;;;;;19.82;66.98;100580.13;7284916;19;152828;-52
2021/10/04 05:33:56;;;;;;;;;;;;;;;19.82;67.49;100586.56;7286687;19;152003;-52
2021/10/04 05:36:23;;;;;;;;;;;;;;;19.86;67.52;100582.00;7287925;19;152638;-53
2021/10/04 05:38:50;;;;;;;;;;;;;;;19.94;67.72;100578.44;7286288;19;154145;-52
2021/10/04 05:41:18;;;;;;;;;;;;;;;19.98;67.78;100573.91;7287726;19;151688;-52
2021/10/04 05:43:45;;;;;;;;;;;;;;;20.02;67.88;100582.50;7287170;19;153248;-52
2021/10/04 05:46:12;;;;;;;;;;;;;;;20.05;67.61;100584.69;7294113;19;153556;-53
2021/10/04 05:48:39;;;;;;;;;;;;;;;20.07;67.88;100589.97;7288287;19;153146;-52
2021/10/04 05:51:10;;;;;;;;;;;;;;;20.11;68.21;100594.66;7283195;19;154509;-52
2021/10/04 05:53:37;;;;;;;;;;;;;;;20.15;68.53;100586.44;7288373;19;151759;-51
2021/10/04 05:56:05;;;;;;;;;;;;;;;20.20;68.92;100583.50;7286373;19;151736;-52
2021/10/04 05:58:32;;;;;;;;;;;;;;;20.24;69.08;100576.13;7286261;19;154094;-52
2021/10/04 06:00:59;;;;;;;;;;;;;;;20.29;69.00;100576.84;7285667;19;152518;-52
2021/10/04 06:03:26;;;;;;;;;;;;;;;20.35;68.91;100581.19;7285441;19;153527;-52
2021/10/04 06:05:54;;;;;;;;;;;;;;;20.41;68.61;100587.53;7285655;19;153945;-53
2021/10/04 06:08:21;;;;;;;;;;;;;;;20.46;68.46;100587.41;7293422;19;151878;-52
2021/10/04 06:10:48;;;;;;;;;;;;;;;20.53;68.42;100593.44;7284746;19;153761;-52
2021/10/04 06:13:15;;;;;;;;;;;;;;;20.59;68.34;100596.94;7285707;19;151780;-52
2021/10/04 06:15:43;;;;;;;;;;;;;;;20.65;68.21;100606.91;7285545;19;153615;-52
2021/10/04 06:18:12;;;;;;;;;;;;;;;20.74;67.83;100605.00;7285819;19;152805;-52
2021/10/04 06:20:39;;;;;;;;;;;;;;;20.82;67.12;100605.06;7285548;19;151913;-52
2021/10/04 06:23:07;;;;;;;;;;;;;;;20.89;66.45;100604.63;7285319;19;152825;-52
2021/10/04 06:25:34;;;;;;;;;;;;;;;20.96;65.97;100606.97;7285555;19;153432;-52
2021/10/04 06:28:01;;;;;;;;;;;;;;;21.01;65.09;100607.69;7293196;19;151979;-52
2021/10/04 06:30:28;;;;;;;;;;;;;;;21.06;64.80;100606.72;7283030;19;153976;-51
2021/10/04 06:32:56;;;;;;;;;;;;;;;21.11;64.18;100607.41;7284447;19;151506;-52
2021/10/04 06:35:23;;;;;;;;;;;;;;;20.99;59.36;100606.31;7284494;19;151955;-51
2021/10/04 06:37:50;;;;;;;;;;;;;;;20.89;60.02;100601.81;7283915;19;153576;-51
2021/10/04 06:40:17;;;;;;;;;;;;;;;21.08;59.78;100608.03;7285937;19;151598;-52
2021/10/04 06:42:45;;;;;;;;;;;;;;;21.14;59.78;100612.41;7284686;19;153170;-53
2021/10/04 06:45:12;;;;;;;;;;;;;;;21.18;59.89;100615.41;7284598;19;152268;-53
2021/10/04 06:47:40;;;;;;;;;;;;;;;21.24;59.83;100616.94;7283935;19;151757;-52
2021/10/04 06:50:09;;;;;;;;;;;;;;;21.28;59.60;100609.53;7290728;19;153558;-53
2021/10/04 06:52:38;;;;;;;;;;;;;;;21.31;59.90;100611.69;7283787;19;151875;-52
2021/10/04 06:55:06;;;;;;;;;;;;;;;21.36;59.40;100605.09;7283625;19;152655;-52
2021/10/04 06:57:37;;;;;;;;;;;;;;;21.39;59.22;100616.53;7280341;19;153231;-52
2021/10/04 07:00:06;;;;;;;;;;;;;;;21.43;59.51;100617.56;7283950;19;151988;-52
2021/10/04 07:02:34;;;;;;;;;;;;;;;21.46;58.85;100616.91;7280965;19;153283;-52
2021/10/04 07:05:01;;;;;;;;;;;;;;;21.50;58.86;100623.53;7282713;19;154142;-52
2021/10/04 07:07:29;;;;;;;;;;;;;;;21.53;58.81;100620.06;7285484;19;152185;-52
2021/10/04 07:09:56;;;;;;;;;;;;;;;21.56;58.63;100621.41;7283721;19;153985;-52
2021/10/04 07:12:24;;;;;;;;;;;;;;;21.59;58.75;100627.22;7291308;19;152755;-52
2021/10/04 07:14:52;;;;;;;;;;;;;;;21.60;58.17;100630.84;7283208;19;153650;-52
2021/10/04 07:17:19;;;;;;;;;;;;;;;21.64;58.17;100635.50;7282286;19;153749;-52
2021/10/04 07:19:47;;;;;;;;;;;;;;;21.65;58.31;100627.91;7284402;19;152155;-52
2021/10/04 07:22:14;;;;;;;;;;;;;;;21.68;58.30;100633.72;7284348;19;152136;-52
2021/10/04 07:24:41;;;;;;;;;;;;;;;21.70;58.43;100631.41;7283235;19;154241;-52
2021/10/04 07:27:10;;;;;;;;;;;;;;;21.70;57.90;100636.22;7283901;19;152392;-52
2021/10/04 07:29:37;;;;;;;;;;;;;;;21.72;58.29;100631.91;7282085;19;151957;-52
2021/10/04 07:32:05;;;;;;;;;;;;;;;21.76;57.99;100634.09;7281869;19;153974;-52
2021/10/04 07:34:32;;;;;;;;;;;;;;;21.76;57.79;100634.09;7291700;19;151875;-52
2021/10/04 07:36:59;;;;;;;;;;;;;;;21.73;57.53;100641.16;7281177;19;152977;-52
2021/10/04 07:39:27;;;;;;;;;;;;;;;21.71;57.47;100643.50;7284950;19;152464;-52
2021/10/04 07:41:56;;;;;;;;;;;;;;;21.69;57.50;100645.78;7282681;19;152161;-52
2021/10/04 07:44:24;;;;;;;;;;;;;;;21.69;57.31;100641.00;7283706;19;154101;-52
2021/10/04 07:46:51;;;;;;;;;;;;;;;21.69;56.95;100637.34;7283437;19;153716;-52
2021/10/04 07:49:18;;;;;;;;;;;;;;;21.65;57.26;100645.63;7284385;19;152594;-52
2021/10/04 07:51:58;;;;;;;;;;;;;;;21.69;57.85;100642.97;7281430;19;153908;-61
2021/10/04 07:54:25;;;;;;;;;;;;;;;21.67;56.69;100640.47;7283116;19;151834;-52
2021/10/04 07:56:52;;;;;;;;;;;;;;;21.66;56.79;100643.63;7287028;19;152768;-52
2021/10/04 07:59:19;;;;;;;;;;;;;;;21.65;57.10;100647.59;7283317;19;151857;-52
2021/10/04 08:01:46;;;;;;;;;;;;;;;21.63;56.69;100645.09;7280715;19;152679;-52
2021/10/04 08:04:14;;;;;;;;;;;;;;;21.63;56.93;100641.44;7277871;19;154010;-52
2021/10/04 08:06:41;;;;;;;;;;;;;;;21.61;56.79;100652.22;7270915;19;153156;-52
2021/10/04 08:09:08;;;;;;;;;;;;;;;21.59;56.88;100658.13;7279118;19;153513;-52
2021/10/04 08:11:35;;;;;;;;;;;;;;;21.56;56.45;100658.78;7279334;19;153495;-52
2021/10/04 08:14:02;;;;;;;;;;;;;;;21.57;56.94;100651.19;7282567;19;152193;-51
2021/10/04 08:16:29;;;;;;;;;;;;;;;21.54;56.54;100658.28;7289617;19;154254;-52
2021/10/04 08:18:56;;;;;;;;;;;;;;;21.53;56.64;100650.19;7296236;19;152150;-52
2021/10/04 08:21:23;;;;;;;;;;;;;;;21.53;57.02;100653.00;7288984;19;152512;-52
2021/10/04 08:23:51;;;;;;;;;;;;;;;21.50;57.11;100648.00;7286666;19;152144;-52
2021/10/04 08:26:18;;;;;;;;;;;;;;;21.46;56.74;100667.50;7288558;19;151954;-52
2021/10/04 08:28:45;;;;;;;;;;;;;;;21.44;56.83;100664.16;7286599;19;153784;-52
2021/10/04 08:31:13;;;;;;;;;;;;;;;21.43;56.68;100668.16;7287819;19;152356;-52
2021/10/04 08:33:40;;;;;;;;;;;;;;;21.39;56.82;100672.75;7290526;19;151652;-51
2021/10/04 08:36:07;;;;;;;;;;;;;;;21.37;56.89;100669.44;7286850;19;153479;-52
2021/10/04 08:38:35;;;;;;;;;;;;;;;21.36;56.83;100672.53;7292530;19;152469;-52
2021/10/04 08:41:02;;;;;;;;;;;;;;;21.34;57.18;100675.69;7289358;19;152029;-52
2021/10/04 08:43:29;;;;;;;;;;;;;;;21.34;56.79;100663.63;7288296;19;153708;-52
2021/10/04 08:45:58;;;;;;;;;;;;;;;21.31;57.00;100670.69;7287856;19;151877;-52
2021/10/04 08:48:26;;;;;;;;;;;;;;;21.30;57.12;100664.25;7289509;19;153569;-51
2021/10/04 08:50:55;;;;;;;;;;;;;;;21.30;57.15;100669.06;7288465;19;153262;-52
2021/10/04 08:53:23;;;;;;;;;;;;;;;21.25;57.12;100672.00;7287989;19;151594;-52
2021/10/04 08:55:50;;;;;;;;;;;;;;;21.22;57.34;100670.63;7287699;19;153404;-52
2021/10/04 08:58:17;;;;;;;;;;;;;;;21.23;57.29;100668.66;7284115;19;153348;-52
2021/10/04 09:00:45;;;;;;;;;;;;;;;21.20;57.29;100663.69;7293559;19;151938;-52
2021/10/04 09:03:13;;;;;;;;;;;;;;;21.19;57.37;100662.88;7286421;19;153380;-52
2021/10/04 09:05:44;;;;;;;;;;;;;;;21.16;57.46;100660.69;7289948;19;152187;-51
2021/10/04 09:08:12;;;;;;;;;;;;;;;21.17;57.17;100669.94;7287107;19;153319;-52
2021/10/04 09:10:41;;;;;;;;;;;;;;;21.15;57.30;100667.47;7286446;19;153279;-52
2021/10/04 09:13:13;;;;;;;;;;;;;;;21.15;57.21;100672.25;7287325;19;151889;-52
2021/10/04 09:15:42;;;;;;;;;;;;;;;21.14;57.55;100659.34;7289598;19;152895;-52
2021/10/04 09:18:09;;;;;;;;;;;;;;;21.10;57.09;100673.19;7283047;19;153383;-51
2021/10/04 09:20:39;;;;;;;;;;;;;;;21.11;57.19;100672.03;7288873;19;152094;-51
2021/10/04 09:23:06;;;;;;;;;;;;;;;21.10;57.63;100677.97;7294425;19;151767;-52
2021/10/04 09:25:39;;;;;;;;;;;;;;;21.08;57.53;100674.63;7287844;19;152015;-52
2021/10/04 09:28:06;;;;;;;;;;;;;;;21.08;57.22;100683.06;7286419;19;153203;-52
2021/10/04 09:30:33;;;;;;;;;;;;;;;21.08;57.66;100669.00;7285816;19;152491;-52
2021/10/04 09:33:02;;;;;;;;;;;;;;;21.09;57.37;100677.13;7286060;19;151773;-52
2021/10/04 09:35:30;;;;;;;;;;;;;;;21.03;57.35;100675.59;7286247;19;151824;-52
2021/10/04 09:37:58;;;;;;;;;;;;;;;21.02;57.38;100673.09;7286053;19;154162;-52
2021/10/04 09:40:27;;;;;;;;;;;;;;;20.99;57.44;100666.13;7288860;19;151703;-51
2021/10/04 09:42:54;;;;;;;;;;;;;;;21.01;57.30;100675.09;7288259;19;153383;-52
2021/10/04 09:45:21;;;;;;;;;;;;;;;21.00;57.74;100678.19;7292509;19;153969;-52
2021/10/04 09:47:49;;;;;;;;;;;;;;;20.97;57.90;100685.31;7286562;19;153347;-52
2021/10/04 09:50:18;;;;;;;;;;;;;;;20.97;57.52;100674.06;7286544;19;153137;-52
2021/10/04 09:52:49;;;;;;;;;;;;;;;20.96;57.70;100685.59;7286384;19;151893;-52
2021/10/04 09:55:19;;;;;;;;;;;;;;;20.94;57.58;100679.50;7286368;19;152228;-52
2021/10/04 09:57:53;;;;;;;;;;;;;;;20.92;57.45;100687.41;7283142;19;154113;-52
2021/10/04 10:00:20;;;;;;;;;;;;;;;20.91;57.65;100685.72;7286935;19;151957;-52
2021/10/04 10:02:54;;;;;;;;;;;;;;;20.91;57.61;100699.78;7287472;19;151902;-52
2021/10/04 10:05:23;;;;;;;;;;;;;;;20.89;57.64;100694.50;7284586;19;152386;-52
2021/10/04 10:07:50;;;;;;;;;;;;;;;20.90;57.55;100706.53;7293047;19;151873;-52
2021/10/04 10:10:34;;;;;;;;;;;;;;;20.87;57.39;100699.56;7283875;19;152986;-52
2021/10/04 10:13:01;;;;;;;;;;;;;;;20.86;57.17;100697.91;7285239;19;152283;-52
2021/10/04 10:15:29;;;;;;;;;;;;;;;20.81;57.27;100701.66;7285589;19;153247;-52
2021/10/04 10:18:01;;;;;;;;;;;;;;;20.78;57.02;100699.50;7285000;19;154000;-52
2021/10/04 10:20:29;;;;;;;;;;;;;;;20.79;57.55;100708.75;7286578;19;151494;-52
2021/10/04 10:22:57;;;;;;;;;;;;;;;20.75;56.97;100704.94;7284706;19;153243;-52
2021/10/04 10:25:32;;;;;;;;;;;;;;;20.74;57.14;100708.88;7286218;19;153345;-52
2021/10/04 10:28:00;;;;;;;;;;;;;;;20.75;57.25;100707.75;7294375;19;151694;-52
2021/10/04 10:30:28;;;;;;;;;;;;;;;20.76;56.81;100715.81;7284021;19;153372;-52
2021/10/04 10:32:56;;;;;;;;;;;;;;;20.75;56.74;100716.16;7287629;19;151904;-52
2021/10/04 10:35:26;;;;;;;;;;;;;;;20.73;57.02;100716.47;7283757;19;152357;-52
2021/10/04 10:37:54;;;;;;;;;;;;;;;20.70;56.99;100717.09;7282267;19;153318;-52
2021/10/04 10:40:23;;;;;;;;;;;;;;;20.68;57.34;100716.56;7287517;19;151962;-52
2021/10/04 10:42:53;;;;;;;;;;;;;;;20.69;57.46;100715.44;7287248;19;152802;-52
2021/10/04 10:45:20;;;;;;;;;;;;;;;20.69;57.02;100715.44;7284982;19;153947;-52
2021/10/04 10:47:49;;;;;;;;;;;;;;;20.69;56.72;100711.78;7285910;19;151696;-51
2021/10/04 10:50:16;;;;;;;;;;;;;;;20.70;57.23;100705.03;7293094;19;153146;-52
2021/10/04 10:52:45;;;;;;;;;;;;;;;20.68;57.07;100716.56;7286739;19;151922;-52
2021/10/04 10:55:15;;;;;;;;;;;;;;;20.64;56.90;100723.13;7286362;19;152623;-52
2021/10/04 10:57:45;;;;;;;;;;;;;;;20.62;56.41;100723.47;7284957;19;153664;-52
2021/10/04 11:00:15;;;;;;;;;;;;;;;20.59;56.80;100714.81;7285098;19;152287;-52
2021/10/04 11:02:46;;;;;;;;;;;;;;;20.57;56.50;100714.31;7286388;19;152776;-52
2021/10/04 11:05:21;;;;;;;;;;;;;;;20.53;56.90;100719.75;7284442;19;152633;-52
2021/10/04 11:07:51;;;;;;;;;;;;;;;20.51;56.54;100719.22;7285752;19;152159;-52
2021/10/04 11:10:18;;;;;;;;;;;;;;;20.53;56.80;100716.09;7284978;19;153484;-52
2021/10/04 11:12:48;;;;;;;;;;;;;;;20.51;56.82;100712.75;7292225;19;154381;-52
2021/10/04 11:15:27;;;;;;;;;;;;;;;20.51;56.91;100724.00;7283174;19;153216;-52
2021/10/04 11:17:54;;;;;;;;;;;;;;;20.50;56.86;100714.72;7283572;19;154117;-52
2021/10/04 11:20:21;;;;;;;;;;;;;;;20.45;56.33;100709.22;7285196;19;151918;-52
2021/10/04 11:22:48;;;;;;;;;;;;;;;20.42;56.81;100710.69;7286080;19;153698;-52
2021/10/04 11:25:16;;;;;;;;;;;;;;;20.46;56.36;100719.31;7284355;19;153933;-51
2021/10/04 11:27:46;;;;;;;;;;;;;;;20.45;56.46;100703.63;7283901;19;151902;-52
2021/10/04 11:30:13;;;;;;;;;;;;;;;20.45;56.26;100708.41;7283494;19;153284;-52
2021/10/04 11:32:40;;;;;;;;;;;;;;;20.46;56.71;100705.28;7283810;19;152638;-52
2021/10/04 11:35:10;;;;;;;;;;;;;;;20.47;56.75;100709.75;7289861;19;151823;-52
2021/10/04 11:37:37;;;;;;;;;;;;;;;20.52;56.22;100708.81;7282456;19;152620;-51
2021/10/04 11:40:06;;;;;;;;;;;;;;;20.50;56.46;100706.31;7281357;19;151986;-52
2021/10/04 11:42:33;;;;;;;;;;;;;;;20.51;56.71;100707.97;7284459;19;153567;-52
2021/10/04 11:45:00;;;;;;;;;;;;;;;20.50;56.69;100711.94;7283899;19;153259;-51
2021/10/04 11:47:27;;;;;;;;;;;;;;;20.51;56.28;100707.16;7282317;19;152470;-51
2021/10/04 11:49:54;;;;;;;;;;;;;;;20.46;56.46;100699.66;7288140;19;153455;-52
2021/10/04 11:52:26;;;;;;;;;;;;;;;20.53;56.47;100702.91;7289658;19;154640;-52
2021/10/04 11:54:55;;;;;;;;;;;;;;;20.51;56.25;100702.38;7288724;19;151686;-52
2021/10/04 11:57:22;;;;;;;;;;;;;;;20.52;56.36;100692.81;7296852;19;153246;-52
2021/10/04 11:59:50;;;;;;;;;;;;;;;20.52;56.39;100698.44;7288169;19;152873;-51
2021/10/04 12:02:22;;;;;;;;;;;;;;;20.53;56.55;100704.88;7289076;19;151826;-52
2021/10/04 12:04:57;;;;;;;;;;;;;;;20.52;56.73;100709.66;7289445;19;152894;-52
2021/10/04 12:07:24;;;;;;;;;;;;;;;20.52;56.60;100703.22;7288681;19;151793;-52
2021/10/04 12:09:54;;;;;;;;;;;;;;;20.52;56.54;100708.81;7290280;19;152822;-52
2021/10/04 12:12:30;;;;;;;;;;;;;;;20.49;56.13;100718.69;7288908;19;154032;-52
2021/10/04 12:14:57;;;;;;;;;;;;;;;20.51;56.39;100707.16;7288272;19;151902;-52
2021/10/04 12:17:24;;;;;;;;;;;;;;;20.53;56.43;100705.72;7289726;19;152643;-52
2021/10/04 12:19:51;;;;;;;;;;;;;;;20.52;56.49;100709.66;7294484;19;154025;-52
2021/10/04 12:22:21;;;;;;;;;;;;;;;20.54;56.30;100712.13;7290239;19;152641;-52
2021/10/04 12:24:48;;;;;;;;;;;;;;;20.51;56.56;100707.97;7288678;19;152687;-52
2021/10/04 12:27:15;;;;;;;;;;;;;;;20.54;56.09;100701.72;7289991;19;151824;-52
2021/10/04 12:29:45;;;;;;;;;;;;;;;20.51;56.35;100707.97;7290128;19;152011;-52